Time;durP1;ratioP1;P1;durP2;ratioP2;P2;SDS_P1;SDS_P2;PMS_P1;PMS_P2;Temp;Humidity;BMP_temperature;BMP_pressure;BME280_temperature;BME280_humidity;BME280_pressure;Samples;Min_cycle;Max_cycle;Signal;HPM_P1;HPM_P2
2021/05/23 00:01:08;;;;;;;1.10;1.10;;;;;;;;;;5095564;28;20200;-81
2021/05/23 00:03:35;;;;;;;1.65;1.40;;;;;;;;;;5095859;28;20204;-81
2021/05/23 00:06:04;;;;;;;3.85;1.02;;;;;;;;;;5096484;28;20208;-81
2021/05/23 00:08:31;;;;;;;1.20;0.90;;;;;;;;;;5095268;28;20244;-81
2021/05/23 00:11:01;;;;;;;1.08;0.88;;;;;;;;;;5095556;28;20192;-80
2021/05/23 00:13:32;;;;;;;3.13;1.20;;;;;;;;;;5095040;28;20575;-81
2021/05/23 00:16:02;;;;;;;1.25;1.15;;;;;;;;;;5095172;28;20917;-81
2021/05/23 00:18:32;;;;;;;2.05;1.15;;;;;;;;;;5095522;28;20213;-81
2021/05/23 00:21:00;;;;;;;1.30;1.20;;;;;;;;;;5095430;28;20196;-81
2021/05/23 00:23:28;;;;;;;1.30;1.20;;;;;;;;;;5094763;28;20200;-81
2021/05/23 00:25:55;;;;;;;1.98;1.05;;;;;;;;;;5094683;28;20204;-81
2021/05/23 00:28:22;;;;;;;1.73;1.13;;;;;;;;;;5094790;28;20219;-81
2021/05/23 00:30:49;;;;;;;1.20;1.10;;;;;;;;;;5095086;28;20704;-81
2021/05/23 00:33:16;;;;;;;1.40;1.30;;;;;;;;;;5054913;28;20198;-81
2021/05/23 00:35:43;;;;;;;2.85;1.35;;;;;;;;;;5054454;28;20279;-81
2021/05/23 00:38:11;;;;;;;2.03;1.23;;;;;;;;;;5054264;28;20217;-81
2021/05/23 00:40:40;;;;;;;2.67;1.38;;;;;;;;;;5054769;28;20676;-81
2021/05/23 00:43:09;;;;;;;0.98;0.93;;;;;;;;;;5054674;28;20749;-81
2021/05/23 00:45:36;;;;;;;1.38;1.10;;;;;;;;;;5054636;28;20687;-81
2021/05/23 00:48:04;;;;;;;1.95;1.23;;;;;;;;;;5054351;28;20222;-81
2021/05/23 00:50:31;;;;;;;2.08;1.05;;;;;;;;;;5054774;28;20198;-81
2021/05/23 00:53:00;;;;;;;2.70;1.27;;;;;;;;;;5054572;28;20206;-81
2021/05/23 00:55:27;;;;;;;1.60;1.42;;;;;;;;;;5054319;28;20282;-81
2021/05/23 00:57:55;;;;;;;1.30;1.05;;;;;;;;;;5054670;28;20229;-81
2021/05/23 01:01:12;;;;;;;1.42;1.15;;;;;;;;;;5054467;28;20362;-81
2021/05/23 01:04:00;;;;;;;2.17;1.10;;;;;;;;;;5053944;28;20275;-81
2021/05/23 01:06:28;;;;;;;3.78;1.58;;;;;;;;;;5054145;28;20198;-80
2021/05/23 01:08:56;;;;;;;1.75;1.13;;;;;;;;;;5054062;28;20624;-81
2021/05/23 01:12:25;;;;;;;1.10;1.10;;;;;;;;;;5053671;28;20228;-81
2021/05/23 01:14:59;;;;;;;1.45;0.90;;;;;;;;;;5054768;28;20197;-81
2021/05/23 01:17:38;;;;;;;3.22;0.98;;;;;;;;;;5053921;28;20233;-81
2021/05/23 01:20:20;;;;;;;1.27;1.02;;;;;;;;;;5054174;28;20193;-81
2021/05/23 01:22:53;;;;;;;1.20;1.10;;;;;;;;;;5054094;28;20197;-81
2021/05/23 01:25:25;;;;;;;1.00;0.90;;;;;;;;;;5053732;28;20236;-81
2021/05/23 01:27:53;;;;;;;1.98;1.15;;;;;;;;;;5053865;28;20222;-81
2021/05/23 01:30:25;;;;;;;0.85;0.85;;;;;;;;;;5054030;28;20214;-81
2021/05/23 01:32:57;;;;;;;2.70;1.48;;;;;;;;;;5087295;28;20234;-81
2021/05/23 01:35:30;;;;;;;1.17;1.05;;;;;;;;;;5094647;28;20568;-81
2021/05/23 01:38:01;;;;;;;1.15;1.02;;;;;;;;;;5094497;28;20273;-81
2021/05/23 01:40:30;;;;;;;0.75;0.75;;;;;;;;;;5094469;28;20202;-81
2021/05/23 01:42:57;;;;;;;1.20;1.10;;;;;;;;;;5093704;28;20204;-81
2021/05/23 01:45:24;;;;;;;1.85;1.08;;;;;;;;;;5093876;28;20693;-81
2021/05/23 01:47:51;;;;;;;1.63;1.08;;;;;;;;;;5094032;28;20785;-81
2021/05/23 01:50:18;;;;;;;2.45;1.13;;;;;;;;;;5094384;28;20583;-81
2021/05/23 01:52:51;;;;;;;1.80;1.17;;;;;;;;;;5094043;28;20196;-81
2021/05/23 01:55:18;;;;;;;1.77;1.27;;;;;;;;;;5094746;28;20199;-81
2021/05/23 01:57:46;;;;;;;4.18;1.40;;;;;;;;;;5093792;28;20238;-81
2021/05/23 02:00:16;;;;;;;1.17;1.08;;;;;;;;;;5094386;28;20457;-81
2021/05/23 02:02:43;;;;;;;1.38;0.80;;;;;;;;;;5093799;28;20261;-81
2021/05/23 02:05:11;;;;;;;1.25;1.13;;;;;;;;;;5094353;28;20200;-81
2021/05/23 02:07:39;;;;;;;0.90;0.90;;;;;;;;;;5093712;28;20227;-81
2021/05/23 02:10:08;;;;;;;1.08;1.00;;;;;;;;;;5093583;28;20245;-81
2021/05/23 02:12:35;;;;;;;0.93;0.88;;;;;;;;;;5094437;28;20211;-81
2021/05/23 02:15:04;;;;;;;0.90;0.82;;;;;;;;;;5094543;28;20509;-81
2021/05/23 02:17:35;;;;;;;1.08;1.05;;;;;;;;;;5093930;28;20228;-81
2021/05/23 02:20:03;;;;;;;2.92;1.10;;;;;;;;;;5093711;28;20204;-81
2021/05/23 02:22:30;;;;;;;0.88;0.88;;;;;;;;;;5093954;28;20211;-81
2021/05/23 02:24:57;;;;;;;3.80;1.48;;;;;;;;;;5094265;28;20647;-81
2021/05/23 02:27:24;;;;;;;1.30;1.20;;;;;;;;;;5094764;28;20298;-81
2021/05/23 02:29:50;;;;;;;2.10;0.98;;;;;;;;;;5093969;28;20204;-81
2021/05/23 02:32:18;;;;;;;1.08;1.08;;;;;;;;;;5093810;28;20240;-81
2021/05/23 02:34:49;;;;;;;3.03;1.40;;;;;;;;;;5094697;28;20204;-81
2021/05/23 02:37:16;;;;;;;2.05;0.93;;;;;;;;;;5093755;28;20243;-81
2021/05/23 02:39:43;;;;;;;1.23;0.90;;;;;;;;;;5095624;28;20204;-81
2021/05/23 02:42:10;;;;;;;1.92;1.27;;;;;;;;;;5097144;28;20227;-81
2021/05/23 02:44:37;;;;;;;0.95;0.95;;;;;;;;;;5096682;28;20560;-81
2021/05/23 02:47:04;;;;;;;0.80;0.80;;;;;;;;;;5097543;28;20330;-81
2021/05/23 02:49:32;;;;;;;1.73;1.15;;;;;;;;;;5097288;28;20205;-81
2021/05/23 02:51:58;;;;;;;2.00;0.90;;;;;;;;;;5097766;28;20207;-81
2021/05/23 02:54:25;;;;;;;1.73;1.63;;;;;;;;;;5097041;28;20601;-81
2021/05/23 02:56:52;;;;;;;0.80;0.80;;;;;;;;;;5097387;28;20228;-81
2021/05/23 02:59:19;;;;;;;2.03;1.10;;;;;;;;;;5097489;28;20201;-81
2021/05/23 03:01:46;;;;;;;0.90;0.90;;;;;;;;;;5097422;28;20211;-81
2021/05/23 03:04:12;;;;;;;2.45;1.27;;;;;;;;;;5097280;28;20223;-81
2021/05/23 03:06:40;;;;;;;1.70;1.63;;;;;;;;;;5096852;28;20224;-81
2021/05/23 03:09:07;;;;;;;1.00;1.00;;;;;;;;;;5097333;28;20204;-81
2021/05/23 03:11:34;;;;;;;0.95;0.93;;;;;;;;;;5097648;28;20575;-81
2021/05/23 03:14:00;;;;;;;1.10;0.90;;;;;;;;;;5097840;28;20204;-81
2021/05/23 03:16:27;;;;;;;2.22;1.10;;;;;;;;;;5097598;28;20231;-81
2021/05/23 03:18:54;;;;;;;1.00;0.90;;;;;;;;;;5097370;28;20207;-81
2021/05/23 03:21:21;;;;;;;1.25;0.95;;;;;;;;;;5098093;28;20204;-81
2021/05/23 03:23:48;;;;;;;2.00;0.95;;;;;;;;;;5097990;28;20684;-81
2021/05/23 03:26:15;;;;;;;0.98;0.90;;;;;;;;;;5097445;28;20211;-81
2021/05/23 03:28:42;;;;;;;0.80;0.80;;;;;;;;;;5097720;28;20200;-81
2021/05/23 03:31:09;;;;;;;2.33;0.93;;;;;;;;;;5097112;28;20196;-81
2021/05/23 03:33:36;;;;;;;1.05;0.90;;;;;;;;;;5097555;28;20215;-81
2021/05/23 03:36:03;;;;;;;1.70;0.95;;;;;;;;;;5097562;28;20203;-80
2021/05/23 03:38:30;;;;;;;0.82;0.82;;;;;;;;;;5097508;28;20217;-81
2021/05/23 03:40:57;;;;;;;1.10;1.00;;;;;;;;;;5097793;28;20278;-81
2021/05/23 03:43:24;;;;;;;1.17;1.05;;;;;;;;;;5097959;28;20200;-83
2021/05/23 03:45:51;;;;;;;2.88;1.13;;;;;;;;;;5097716;28;20681;-81
2021/05/23 03:48:18;;;;;;;1.15;1.05;;;;;;;;;;5097617;28;20646;-81
2021/05/23 03:50:45;;;;;;;0.98;0.90;;;;;;;;;;5096865;28;20200;-81
2021/05/23 03:53:12;;;;;;;3.97;1.10;;;;;;;;;;5097447;28;20212;-81
2021/05/23 03:55:38;;;;;;;1.70;0.90;;;;;;;;;;5097089;28;20548;-81
2021/05/23 03:58:07;;;;;;;1.30;0.93;;;;;;;;;;5096739;28;20227;-81
2021/05/23 04:00:35;;;;;;;1.52;0.77;;;;;;;;;;5097192;28;20200;-81
2021/05/23 04:03:02;;;;;;;2.08;1.10;;;;;;;;;;5097455;28;20225;-81
2021/05/23 04:05:31;;;;;;;0.85;0.85;;;;;;;;;;5096584;28;20212;-81
2021/05/23 04:07:59;;;;;;;0.77;0.77;;;;;;;;;;5096660;28;20212;-81
2021/05/23 04:10:30;;;;;;;1.70;0.90;;;;;;;;;;5097338;28;20719;-81
2021/05/23 04:12:58;;;;;;;3.38;1.63;;;;;;;;;;5096899;28;20666;-81
2021/05/23 04:15:26;;;;;;;2.33;0.80;;;;;;;;;;5096533;28;20197;-81
2021/05/23 04:17:53;;;;;;;2.30;1.20;;;;;;;;;;5096906;28;20224;-81
2021/05/23 04:20:22;;;;;;;1.00;0.98;;;;;;;;;;5096316;28;20624;-81
2021/05/23 04:22:49;;;;;;;1.67;1.35;;;;;;;;;;5096886;28;20564;-81
2021/05/23 04:25:17;;;;;;;1.13;1.00;;;;;;;;;;5096060;28;20677;-81
2021/05/23 04:27:46;;;;;;;0.90;0.90;;;;;;;;;;5096472;28;20212;-81
2021/05/23 04:30:15;;;;;;;0.98;0.93;;;;;;;;;;5096679;28;20196;-81
2021/05/23 04:32:43;;;;;;;1.05;0.98;;;;;;;;;;5096284;28;20232;-81
2021/05/23 04:35:14;;;;;;;2.30;1.10;;;;;;;;;;5096210;28;20188;-81
2021/05/23 04:37:40;;;;;;;1.50;1.10;;;;;;;;;;5095733;28;20232;-81
2021/05/23 04:40:09;;;;;;;0.90;0.90;;;;;;;;;;5096610;28;20211;-81
2021/05/23 04:42:36;;;;;;;2.28;0.90;;;;;;;;;;5095830;28;20662;-81
2021/05/23 04:45:05;;;;;;;2.10;1.25;;;;;;;;;;5096372;28;20207;-81
2021/05/23 04:47:32;;;;;;;2.28;1.10;;;;;;;;;;5095625;28;20229;-80
2021/05/23 04:49:59;;;;;;;0.88;0.88;;;;;;;;;;5095636;28;20253;-81
2021/05/23 04:52:26;;;;;;;1.75;1.00;;;;;;;;;;5096256;28;20684;-81
2021/05/23 04:54:53;;;;;;;1.55;1.25;;;;;;;;;;5096489;28;20204;-81
2021/05/23 04:57:20;;;;;;;1.23;1.13;;;;;;;;;;5095691;28;20299;-81
2021/05/23 04:59:50;;;;;;;2.03;1.00;;;;;;;;;;5095450;28;20207;-81
2021/05/23 05:02:17;;;;;;;0.90;0.90;;;;;;;;;;5095187;28;20671;-81
2021/05/23 05:04:44;;;;;;;6.75;1.83;;;;;;;;;;5095040;28;20188;-81
2021/05/23 05:07:12;;;;;;;0.80;0.80;;;;;;;;;;5094839;28;20231;-81
2021/05/23 05:09:39;;;;;;;1.38;0.82;;;;;;;;;;5095256;28;20196;-81
2021/05/23 05:12:07;;;;;;;0.80;0.80;;;;;;;;;;5095965;28;20539;-81
2021/05/23 05:14:34;;;;;;;0.98;0.98;;;;;;;;;;5095644;28;20215;-81
2021/05/23 05:17:01;;;;;;;1.02;0.90;;;;;;;;;;5095528;28;20702;-81
2021/05/23 05:19:28;;;;;;;1.45;0.93;;;;;;;;;;5095907;28;20199;-81
2021/05/23 05:21:55;;;;;;;0.90;0.80;;;;;;;;;;5096036;28;20204;-81
2021/05/23 05:24:23;;;;;;;1.13;1.05;;;;;;;;;;5095194;28;20192;-81
2021/05/23 05:26:50;;;;;;;0.70;0.70;;;;;;;;;;5095398;28;20220;-81
2021/05/23 05:29:17;;;;;;;1.30;0.90;;;;;;;;;;5095960;28;20558;-81
2021/05/23 05:31:44;;;;;;;1.00;1.00;;;;;;;;;;5095444;28;20227;-81
2021/05/23 05:34:11;;;;;;;0.90;0.90;;;;;;;;;;5095427;28;20199;-81
2021/05/23 05:36:38;;;;;;;1.13;1.13;;;;;;;;;;5095340;28;20687;-81
2021/05/23 05:39:06;;;;;;;2.10;1.30;;;;;;;;;;5095178;28;20204;-81
2021/05/23 05:41:34;;;;;;;1.50;1.00;;;;;;;;;;5095533;28;20253;-81
2021/05/23 05:44:01;;;;;;;2.17;1.38;;;;;;;;;;5095223;28;20231;-81
2021/05/23 05:46:28;;;;;;;2.55;1.00;;;;;;;;;;5095683;28;20663;-81
2021/05/23 05:48:55;;;;;;;1.13;0.93;;;;;;;;;;5095418;28;20692;-81
2021/05/23 05:51:22;;;;;;;1.52;1.13;;;;;;;;;;5095282;28;20212;-81
2021/05/23 05:53:48;;;;;;;1.77;1.10;;;;;;;;;;5096059;28;20663;-81
2021/05/23 05:56:15;;;;;;;2.08;1.00;;;;;;;;;;5095526;28;20200;-82
2021/05/23 05:58:43;;;;;;;1.38;1.27;;;;;;;;;;5095736;28;20223;-81
2021/05/23 06:01:10;;;;;;;0.80;0.80;;;;;;;;;;5095878;28;20204;-82
2021/05/23 06:03:37;;;;;;;1.48;1.38;;;;;;;;;;5095313;28;20211;-81
2021/05/23 06:06:05;;;;;;;1.75;1.02;;;;;;;;;;5095436;28;20191;-81
2021/05/23 06:08:31;;;;;;;1.55;1.00;;;;;;;;;;5095326;28;20231;-83
2021/05/23 06:10:59;;;;;;;1.20;1.10;;;;;;;;;;5096863;28;20204;-82
2021/05/23 06:13:26;;;;;;;1.77;1.33;;;;;;;;;;5096079;28;20196;-81
2021/05/23 06:15:54;;;;;;;1.67;1.35;;;;;;;;;;5099249;28;20204;-81
2021/05/23 06:18:25;;;;;;;2.67;1.08;;;;;;;;;;5099083;28;20227;-81
2021/05/23 06:20:51;;;;;;;1.73;1.63;;;;;;;;;;5099881;28;20211;-81
2021/05/23 06:23:19;;;;;;;1.00;1.00;;;;;;;;;;5099497;28;20200;-81
2021/05/23 06:25:46;;;;;;;1.00;1.00;;;;;;;;;;5098656;28;20204;-81
2021/05/23 06:28:13;;;;;;;1.45;1.35;;;;;;;;;;5099051;28;20219;-81
2021/05/23 06:30:41;;;;;;;1.20;0.88;;;;;;;;;;5098925;28;20620;-82
2021/05/23 06:33:08;;;;;;;1.38;1.27;;;;;;;;;;5099200;28;20628;-81
2021/05/23 06:35:35;;;;;;;1.65;1.00;;;;;;;;;;5098939;28;20268;-81
2021/05/23 06:38:02;;;;;;;1.00;0.98;;;;;;;;;;5098882;28;20232;-82
2021/05/23 06:40:29;;;;;;;3.67;1.10;;;;;;;;;;5099008;28;20572;-81
2021/05/23 06:42:56;;;;;;;2.05;1.55;;;;;;;;;;5099418;28;20646;-81
2021/05/23 06:45:23;;;;;;;0.80;0.80;;;;;;;;;;5098615;28;20254;-81
2021/05/23 06:47:49;;;;;;;0.90;0.88;;;;;;;;;;5098982;28;20220;-82
2021/05/23 06:50:17;;;;;;;1.50;1.38;;;;;;;;;;5098290;28;20207;-81
2021/05/23 06:52:44;;;;;;;1.13;0.95;;;;;;;;;;5099024;28;20482;-82
2021/05/23 06:55:13;;;;;;;2.83;1.60;;;;;;;;;;5099131;28;20269;-82
2021/05/23 06:57:39;;;;;;;1.30;0.90;;;;;;;;;;5099177;28;20697;-81
2021/05/23 07:00:08;;;;;;;1.40;1.00;;;;;;;;;;5098113;28;20204;-81
2021/05/23 07:02:35;;;;;;;2.42;1.20;;;;;;;;;;5098968;28;20214;-80
2021/05/23 07:05:02;;;;;;;2.20;1.10;;;;;;;;;;5098603;28;20208;-81
2021/05/23 07:07:31;;;;;;;0.95;0.95;;;;;;;;;;5097779;28;20665;-81
2021/05/23 07:09:58;;;;;;;2.53;1.23;;;;;;;;;;5097725;28;20210;-81
2021/05/23 07:12:25;;;;;;;1.27;0.95;;;;;;;;;;5097705;28;20589;-81
2021/05/23 07:14:52;;;;;;;0.90;0.90;;;;;;;;;;5098652;28;20227;-81
2021/05/23 07:17:19;;;;;;;2.00;0.88;;;;;;;;;;5098404;28;20231;-81
2021/05/23 07:19:45;;;;;;;0.70;0.70;;;;;;;;;;5097879;28;20247;-82
2021/05/23 07:22:12;;;;;;;0.80;0.80;;;;;;;;;;5098010;28;20211;-81
2021/05/23 07:24:40;;;;;;;1.48;0.95;;;;;;;;;;5097423;28;20200;-82
2021/05/23 07:27:07;;;;;;;0.70;0.70;;;;;;;;;;5097206;28;20597;-82
2021/05/23 07:29:34;;;;;;;0.70;0.70;;;;;;;;;;5097509;28;20573;-81
2021/05/23 07:32:01;;;;;;;5.00;1.13;;;;;;;;;;5098127;28;20216;-82
2021/05/23 07:34:28;;;;;;;0.90;0.90;;;;;;;;;;5096965;28;20658;-82
2021/05/23 07:36:55;;;;;;;1.15;0.77;;;;;;;;;;5097176;28;20228;-82
2021/05/23 07:39:22;;;;;;;1.20;1.00;;;;;;;;;;5097138;28;20273;-81
2021/05/23 07:41:50;;;;;;;1.55;0.77;;;;;;;;;;5097177;28;20196;-81
2021/05/23 07:44:17;;;;;;;0.70;0.70;;;;;;;;;;5096778;28;20674;-81
2021/05/23 07:46:45;;;;;;;0.80;0.80;;;;;;;;;;5097418;28;20245;-81
2021/05/23 07:49:11;;;;;;;1.48;0.98;;;;;;;;;;5097886;28;20799;-81
2021/05/23 07:51:38;;;;;;;0.98;0.80;;;;;;;;;;5097256;28;20200;-81
2021/05/23 07:54:06;;;;;;;0.68;0.68;;;;;;;;;;5097456;28;20204;-82
2021/05/23 07:56:33;;;;;;;0.70;0.70;;;;;;;;;;5097645;28;20232;-84
2021/05/23 07:59:00;;;;;;;0.75;0.63;;;;;;;;;;5096818;28;20220;-81
2021/05/23 08:01:27;;;;;;;0.65;0.65;;;;;;;;;;5097013;28;20211;-81
2021/05/23 08:03:54;;;;;;;0.95;0.95;;;;;;;;;;5097198;28;20604;-81
2021/05/23 08:06:21;;;;;;;0.55;0.55;;;;;;;;;;5098140;28;20203;-82
2021/05/23 08:08:48;;;;;;;0.60;0.60;;;;;;;;;;5096754;28;20197;-81
2021/05/23 08:11:14;;;;;;;0.70;0.70;;;;;;;;;;5096872;28;20197;-81
2021/05/23 08:13:43;;;;;;;0.63;0.63;;;;;;;;;;5097169;28;20283;-81
2021/05/23 08:16:11;;;;;;;0.95;0.68;;;;;;;;;;5097182;28;20207;-81
2021/05/23 08:18:38;;;;;;;1.08;0.75;;;;;;;;;;5096859;28;20220;-81
2021/05/23 08:21:06;;;;;;;0.47;0.47;;;;;;;;;;5097197;28;20200;-83
2021/05/23 08:23:35;;;;;;;0.63;0.63;;;;;;;;;;5096976;28;20678;-82
2021/05/23 08:26:02;;;;;;;0.50;0.50;;;;;;;;;;5097232;28;20206;-82
2021/05/23 08:28:31;;;;;;;0.50;0.50;;;;;;;;;;5096904;28;20266;-82
2021/05/23 08:30:59;;;;;;;0.90;0.90;;;;;;;;;;5097396;28;20570;-82
2021/05/23 08:33:26;;;;;;;0.63;0.63;;;;;;;;;;5097220;28;20212;-82
2021/05/23 08:35:53;;;;;;;0.63;0.63;;;;;;;;;;5096569;28;20208;-82
2021/05/23 08:38:20;;;;;;;1.02;0.57;;;;;;;;;;5096378;28;20224;-82
2021/05/23 08:40:47;;;;;;;0.60;0.60;;;;;;;;;;5097142;28;20257;-82
2021/05/23 08:43:19;;;;;;;0.60;0.60;;;;;;;;;;5096701;28;20206;-82
2021/05/23 08:45:46;;;;;;;0.80;0.75;;;;;;;;;;5097445;28;20201;-83
2021/05/23 08:48:13;;;;;;;0.85;0.70;;;;;;;;;;5096794;28;20251;-82
2021/05/23 08:50:41;;;;;;;0.88;0.55;;;;;;;;;;5096756;28;20208;-82
2021/05/23 08:53:08;;;;;;;0.57;0.57;;;;;;;;;;5097277;28;20211;-82
2021/05/23 08:55:38;;;;;;;0.68;0.60;;;;;;;;;;5096533;28;20204;-82
2021/05/23 08:58:06;;;;;;;0.70;0.70;;;;;;;;;;5096784;28;20227;-82
2021/05/23 09:00:33;;;;;;;0.88;0.80;;;;;;;;;;5096883;28;20208;-81
2021/05/23 09:03:02;;;;;;;0.80;0.80;;;;;;;;;;5096545;28;20215;-82
2021/05/23 09:05:31;;;;;;;0.70;0.70;;;;;;;;;;5097151;28;20188;-82
2021/05/23 09:08:01;;;;;;;0.95;0.95;;;;;;;;;;5096839;28;20307;-82
2021/05/23 09:10:30;;;;;;;0.88;0.88;;;;;;;;;;5096737;28;20196;-81
2021/05/23 09:12:57;;;;;;;1.10;0.60;;;;;;;;;;5096377;28;20199;-82
2021/05/23 09:15:28;;;;;;;1.23;1.20;;;;;;;;;;5095980;28;20203;-82
2021/05/23 09:18:07;;;;;;;0.65;0.65;;;;;;;;;;5086835;28;20224;-82
2021/05/23 09:20:37;;;;;;;0.82;0.82;;;;;;;;;;5075597;28;20256;-81
2021/05/23 09:23:11;;;;;;;0.60;0.60;;;;;;;;;;5075824;28;20208;-82
2021/05/23 09:25:39;;;;;;;0.57;0.57;;;;;;;;;;5075706;28;20226;-82
2021/05/23 09:28:08;;;;;;;0.60;0.60;;;;;;;;;;5075073;28;20227;-84
2021/05/23 09:30:37;;;;;;;1.73;0.70;;;;;;;;;;5075074;28;20197;-81
2021/05/23 09:33:06;;;;;;;1.08;0.80;;;;;;;;;;5074622;28;20236;-82
2021/05/23 09:35:42;;;;;;;0.77;0.77;;;;;;;;;;5075501;28;20227;-83
2021/05/23 09:38:10;;;;;;;0.63;0.60;;;;;;;;;;5074819;28;20224;-82
2021/05/23 09:40:40;;;;;;;0.70;0.70;;;;;;;;;;5074441;28;20710;-81
2021/05/23 09:43:09;;;;;;;0.70;0.70;;;;;;;;;;5074584;28;20201;-83
2021/05/23 09:45:43;;;;;;;0.90;0.90;;;;;;;;;;5074439;28;20189;-83
2021/05/23 09:48:18;;;;;;;0.85;0.85;;;;;;;;;;5075299;28;20221;-82
2021/05/23 09:50:47;;;;;;;0.80;0.80;;;;;;;;;;5079597;28;20238;-83
2021/05/23 09:53:25;;;;;;;2.83;1.17;;;;;;;;;;5078030;28;20203;-82
2021/05/23 09:55:55;;;;;;;0.80;0.80;;;;;;;;;;5079019;28;20197;-83
2021/05/23 09:58:25;;;;;;;0.85;0.85;;;;;;;;;;5079263;28;20224;-82
2021/05/23 10:00:52;;;;;;;1.02;1.00;;;;;;;;;;5080844;28;20211;-83
2021/05/23 10:03:24;;;;;;;1.10;1.00;;;;;;;;;;5099381;28;20203;-83
2021/05/23 10:05:52;;;;;;;2.65;1.00;;;;;;;;;;5100756;28;20200;-84
2021/05/23 10:08:19;;;;;;;5.03;1.20;;;;;;;;;;5100373;28;20227;-84
2021/05/23 10:10:48;;;;;;;1.00;1.00;;;;;;;;;;5101407;28;20197;-82
2021/05/23 10:13:17;;;;;;;1.02;1.02;;;;;;;;;;5100741;28;20204;-85
2021/05/23 10:15:44;;;;;;;1.10;0.95;;;;;;;;;;5101591;28;20202;-84
2021/05/23 10:18:11;;;;;;;1.00;0.90;;;;;;;;;;5101611;28;20224;-83
2021/05/23 10:20:39;;;;;;;0.90;0.90;;;;;;;;;;5101802;28;20223;-83
2021/05/23 10:23:13;;;;;;;1.10;0.95;;;;;;;;;;5101096;28;20204;-83
2021/05/23 10:25:48;;;;;;;1.35;1.23;;;;;;;;;;5101332;28;20196;-83
2021/05/23 10:28:16;;;;;;;0.93;0.90;;;;;;;;;;5101340;28;20705;-83
2021/05/23 10:30:50;;;;;;;2.10;1.00;;;;;;;;;;5101217;28;20196;-83
2021/05/23 10:33:17;;;;;;;0.93;0.93;;;;;;;;;;5101620;28;20207;-83
2021/05/23 10:35:46;;;;;;;0.80;0.80;;;;;;;;;;5102198;28;20203;-83
2021/05/23 10:38:16;;;;;;;0.93;0.90;;;;;;;;;;5101361;28;20594;-83
2021/05/23 10:40:55;;;;;;;2.47;0.90;;;;;;;;;;5102668;28;20254;-83
2021/05/23 10:43:30;;;;;;;1.05;1.05;;;;;;;;;;5102788;28;20204;-83
2021/05/23 10:46:06;;;;;;;1.17;1.05;;;;;;;;;;5103186;28;20203;-83
2021/05/23 10:48:33;;;;;;;0.80;0.80;;;;;;;;;;5102094;28;20216;-82
2021/05/23 10:51:12;;;;;;;0.80;0.80;;;;;;;;;;5101075;28;20740;-82
2021/05/23 10:53:39;;;;;;;2.20;0.90;;;;;;;;;;5101537;28;20210;-83
2021/05/23 10:56:16;;;;;;;2.47;1.20;;;;;;;;;;5101408;28;20204;-83
2021/05/23 10:58:55;;;;;;;1.42;0.80;;;;;;;;;;5100526;28;20215;-83
2021/05/23 11:01:39;;;;;;;3.00;2.33;;;;;;;;;;5100945;28;20203;-84
2021/05/23 11:04:11;;;;;;;3.33;1.25;;;;;;;;;;5097677;28;20212;-83
2021/05/23 11:06:38;;;;;;;1.08;1.05;;;;;;;;;;5098399;28;20608;-84
2021/05/23 11:09:11;;;;;;;0.90;0.70;;;;;;;;;;5099290;28;20197;-83
2021/05/23 11:11:39;;;;;;;0.75;0.75;;;;;;;;;;5098713;28;20203;-84
2021/05/23 11:14:14;;;;;;;2.08;0.85;;;;;;;;;;5098454;28;20200;-83
2021/05/23 11:16:53;;;;;;;1.50;0.80;;;;;;;;;;5098781;28;20215;-83
2021/05/23 11:19:21;;;;;;;1.42;1.05;;;;;;;;;;5098194;28;20219;-82
2021/05/23 11:21:53;;;;;;;0.70;0.70;;;;;;;;;;5099479;28;20572;-84
2021/05/23 11:24:26;;;;;;;2.25;1.40;;;;;;;;;;5099129;28;20200;-83
2021/05/23 11:26:54;;;;;;;2.03;1.10;;;;;;;;;;5098863;28;20216;-83
2021/05/23 11:29:21;;;;;;;0.63;0.55;;;;;;;;;;5098666;28;20204;-83
2021/05/23 11:31:49;;;;;;;0.75;0.75;;;;;;;;;;5098440;28;20232;-83
2021/05/23 11:34:19;;;;;;;0.95;0.70;;;;;;;;;;5098869;28;20214;-83
2021/05/23 11:36:46;;;;;;;1.77;1.20;;;;;;;;;;5098365;28;20289;-83
2021/05/23 11:39:15;;;;;;;1.10;1.00;;;;;;;;;;5097859;28;20222;-82
2021/05/23 11:41:44;;;;;;;1.02;0.90;;;;;;;;;;5097701;28;20189;-82
2021/05/23 11:44:13;;;;;;;0.90;0.75;;;;;;;;;;5097663;28;20173;-84
2021/05/23 11:46:43;;;;;;;1.23;0.88;;;;;;;;;;5098122;28;20633;-84
2021/05/23 11:49:18;;;;;;;3.40;1.33;;;;;;;;;;5097243;28;20201;-84
2021/05/23 11:51:45;;;;;;;4.25;1.15;;;;;;;;;;5097573;28;20220;-83
2021/05/23 11:54:12;;;;;;;2.28;1.23;;;;;;;;;;5097509;28;20184;-83
2021/05/23 11:56:40;;;;;;;2.95;1.00;;;;;;;;;;5097275;28;20224;-83
2021/05/23 11:59:09;;;;;;;1.38;0.70;;;;;;;;;;5097633;28;20192;-83
2021/05/23 12:01:38;;;;;;;0.77;0.73;;;;;;;;;;5097858;28;20200;-83
2021/05/23 12:04:07;;;;;;;0.77;0.77;;;;;;;;;;5097356;28;20197;-83
2021/05/23 12:06:36;;;;;;;1.17;1.08;;;;;;;;;;5097216;28;20281;-83
2021/05/23 12:09:08;;;;;;;1.00;0.90;;;;;;;;;;5098437;28;20211;-83
2021/05/23 12:11:40;;;;;;;1.23;0.60;;;;;;;;;;5097095;28;20282;-83
2021/05/23 12:14:19;;;;;;;1.02;0.90;;;;;;;;;;5097347;28;20197;-84
2021/05/23 12:16:50;;;;;;;1.85;0.90;;;;;;;;;;5097819;28;20220;-84
2021/05/23 12:19:17;;;;;;;0.80;0.80;;;;;;;;;;5097750;28;20181;-83
2021/05/23 12:21:44;;;;;;;0.73;0.73;;;;;;;;;;5098040;28;20196;-83
2021/05/23 12:24:11;;;;;;;0.88;0.70;;;;;;;;;;5097084;28;20204;-83
2021/05/23 12:26:41;;;;;;;0.70;0.70;;;;;;;;;;5096602;28;20502;-83
2021/05/23 12:29:08;;;;;;;0.63;0.63;;;;;;;;;;5097443;28;20287;-84
2021/05/23 12:31:36;;;;;;;1.10;1.05;;;;;;;;;;5096967;28;20243;-84
2021/05/23 12:34:07;;;;;;;0.52;0.52;;;;;;;;;;5097048;28;20197;-83
2021/05/23 12:36:33;;;;;;;0.95;0.80;;;;;;;;;;5097702;28;20329;-84
2021/05/23 12:39:05;;;;;;;0.68;0.68;;;;;;;;;;5097108;28;20226;-84
2021/05/23 12:41:37;;;;;;;1.08;0.80;;;;;;;;;;5097743;28;20296;-84
2021/05/23 12:44:05;;;;;;;1.80;1.10;;;;;;;;;;5095976;28;20267;-83
2021/05/23 12:46:32;;;;;;;0.90;0.80;;;;;;;;;;5096267;28;20200;-83
2021/05/23 12:48:58;;;;;;;0.95;0.77;;;;;;;;;;5097586;28;20203;-84
2021/05/23 12:51:28;;;;;;;2.78;0.90;;;;;;;;;;5097425;28;20220;-84
2021/05/23 12:53:56;;;;;;;1.25;0.70;;;;;;;;;;5096551;28;20204;-84
2021/05/23 12:56:25;;;;;;;3.00;1.40;;;;;;;;;;5096058;28;20204;-83
2021/05/23 12:58:54;;;;;;;1.60;0.90;;;;;;;;;;5097238;28;20684;-84
2021/05/23 13:01:22;;;;;;;1.10;0.95;;;;;;;;;;5096756;28;20197;-84
2021/05/23 13:03:52;;;;;;;1.48;0.90;;;;;;;;;;5096555;28;20216;-84
2021/05/23 13:06:19;;;;;;;0.90;0.70;;;;;;;;;;5097419;28;20295;-84
2021/05/23 13:08:57;;;;;;;1.90;1.02;;;;;;;;;;5097260;28;20196;-85
2021/05/23 13:11:24;;;;;;;1.73;1.05;;;;;;;;;;5097411;28;20709;-85
2021/05/23 13:13:51;;;;;;;1.23;1.10;;;;;;;;;;5096953;28;20208;-85
2021/05/23 13:16:18;;;;;;;0.88;0.80;;;;;;;;;;5097374;28;20211;-85
2021/05/23 13:18:46;;;;;;;2.33;1.40;;;;;;;;;;5096878;28;20207;-85
2021/05/23 13:21:16;;;;;;;0.90;0.90;;;;;;;;;;5096722;28;20211;-84
2021/05/23 13:23:45;;;;;;;2.13;0.80;;;;;;;;;;5096586;28;20208;-85
2021/05/23 13:26:17;;;;;;;0.98;0.98;;;;;;;;;;5097118;28;20615;-84
2021/05/23 13:28:44;;;;;;;2.75;0.90;;;;;;;;;;5096638;28;20196;-84
2021/05/23 13:31:12;;;;;;;3.40;2.05;;;;;;;;;;5096473;28;20227;-84
2021/05/23 13:33:41;;;;;;;0.90;0.85;;;;;;;;;;5095807;28;20674;-84
2021/05/23 13:36:09;;;;;;;1.60;0.90;;;;;;;;;;5095170;28;20249;-85
2021/05/23 13:38:36;;;;;;;1.13;1.02;;;;;;;;;;5094916;28;20247;-84
2021/05/23 13:41:04;;;;;;;0.82;0.82;;;;;;;;;;5095366;28;20670;-84
2021/05/23 13:43:32;;;;;;;1.55;0.90;;;;;;;;;;5095933;28;20233;-84
2021/05/23 13:45:59;;;;;;;0.60;0.60;;;;;;;;;;5096014;28;20670;-85
2021/05/23 13:48:26;;;;;;;1.77;0.95;;;;;;;;;;5095141;28;20220;-84
2021/05/23 13:50:53;;;;;;;0.82;0.82;;;;;;;;;;5095931;28;20216;-84
2021/05/23 13:53:22;;;;;;;0.88;0.88;;;;;;;;;;5095516;28;20690;-84
2021/05/23 13:55:48;;;;;;;1.05;1.05;;;;;;;;;;5095218;28;20200;-85
2021/05/23 13:58:15;;;;;;;1.20;1.10;;;;;;;;;;5095358;28;20220;-84
2021/05/23 14:00:43;;;;;;;0.77;0.77;;;;;;;;;;5096632;28;20201;-84
2021/05/23 14:03:16;;;;;;;1.00;1.00;;;;;;;;;;5096367;28;20218;-84
2021/05/23 14:05:44;;;;;;;1.30;1.15;;;;;;;;;;5096338;28;20674;-84
2021/05/23 14:08:11;;;;;;;1.75;1.10;;;;;;;;;;5096410;28;20216;-84
2021/05/23 14:10:38;;;;;;;0.85;0.80;;;;;;;;;;5095655;28;20235;-84
2021/05/23 14:13:05;;;;;;;0.82;0.82;;;;;;;;;;5095178;28;20716;-84
2021/05/23 14:15:32;;;;;;;0.90;0.90;;;;;;;;;;5096324;28;20204;-85
2021/05/23 14:18:00;;;;;;;3.90;1.00;;;;;;;;;;5095409;28;20270;-85
2021/05/23 14:20:27;;;;;;;3.00;0.90;;;;;;;;;;5096172;28;20200;-85
2021/05/23 14:22:54;;;;;;;1.17;0.98;;;;;;;;;;5096611;28;20663;-85
2021/05/23 14:25:22;;;;;;;1.38;1.00;;;;;;;;;;5094894;28;20223;-84
2021/05/23 14:27:49;;;;;;;3.20;1.45;;;;;;;;;;5095598;28;20702;-85
2021/05/23 14:30:18;;;;;;;1.70;0.90;;;;;;;;;;5096052;28;20290;-85
2021/05/23 14:32:46;;;;;;;1.40;1.10;;;;;;;;;;5095510;28;20224;-84
2021/05/23 14:35:16;;;;;;;1.08;1.05;;;;;;;;;;5097663;28;20204;-85
2021/05/23 14:37:43;;;;;;;1.75;1.05;;;;;;;;;;5100501;28;20217;-85
2021/05/23 14:40:12;;;;;;;2.38;1.33;;;;;;;;;;5099428;28;20196;-85
2021/05/23 14:42:40;;;;;;;0.88;0.88;;;;;;;;;;5099568;28;20811;-84
2021/05/23 14:45:08;;;;;;;1.90;1.00;;;;;;;;;;5100046;28;20204;-85
2021/05/23 14:47:35;;;;;;;1.92;1.83;;;;;;;;;;5100160;28;20311;-85
2021/05/23 14:50:02;;;;;;;2.15;1.02;;;;;;;;;;5099780;28;20204;-85
2021/05/23 14:52:29;;;;;;;1.20;0.90;;;;;;;;;;5099203;28;20271;-85